Time;durP1;ratioP1;P1;durP2;ratioP2;P2;SDS_P1;SDS_P2;PMS_P1;PMS_P2;Temp;Humidity;BMP_temperature;BMP_pressure;BME280_temperature;BME280_humidity;BME280_pressure;Samples;Min_cycle;Max_cycle;Signal;HPM_P1;HPM_P2
2020/12/27 00:02:14;;;;;;;88.60;37.42;;;;;;;-4.86;85.08;98435.22;4840712;29;20530;-74
2020/12/27 00:04:41;;;;;;;79.93;33.60;;;;;;;-4.89;84.47;98435.22;4824653;29;20054;-73
2020/12/27 00:07:11;;;;;;;91.68;38.85;;;;;;;-4.93;84.56;98420.75;4824834;29;20050;-73
2020/12/27 00:09:41;;;;;;;93.35;40.50;;;;;;;-5.14;85.08;98414.03;4824066;29;20720;-74
2020/12/27 00:12:08;;;;;;;89.22;38.70;;;;;;;-5.11;85.15;98405.47;4825289;29;20050;-73
2020/12/27 00:14:34;;;;;;;89.60;37.80;;;;;;;-5.11;84.62;98411.47;4823890;29;20141;-73
2020/12/27 00:17:07;;;;;;;87.45;37.42;;;;;;;-5.19;85.47;98407.22;4824787;29;20053;-73
2020/12/27 00:19:33;;;;;;;89.65;37.15;;;;;;;-5.15;85.34;98404.66;4823688;29;20384;-74
2020/12/27 00:21:59;;;;;;;85.10;37.55;;;;;;;-5.10;85.22;98402.91;4833788;29;20053;-73
2020/12/27 00:24:25;;;;;;;92.10;38.10;;;;;;;-5.25;85.39;98398.72;4842202;29;20060;-73
2020/12/27 00:26:51;;;;;;;95.95;41.25;;;;;;;-5.26;85.79;98398.75;4842591;29;20054;-74
2020/12/27 00:29:17;;;;;;;99.90;42.05;;;;;;;-5.37;86.05;98388.56;4842540;29;20045;-78
2020/12/27 00:31:43;;;;;;;104.55;43.80;;;;;;;-5.44;86.42;98395.38;4842457;29;20133;-74
2020/12/27 00:34:10;;;;;;;119.85;44.03;;;;;;;-5.49;86.64;98394.53;4842643;29;20061;-74
2020/12/27 00:36:35;;;;;;;107.60;42.08;;;;;;;-5.51;86.49;98386.03;4840505;29;20050;-74
2020/12/27 00:39:06;;;;;;;90.60;39.35;;;;;;;-5.41;86.32;98387.72;4842805;29;20094;-74
2020/12/27 00:41:32;;;;;;;88.10;39.30;;;;;;;-5.44;86.03;98387.72;4841925;29;20464;-74
2020/12/27 00:43:57;;;;;;;100.32;40.97;;;;;;;-5.49;86.09;98389.41;4842855;29;20509;-73
2020/12/27 00:46:23;;;;;;;92.95;39.65;;;;;;;-5.51;86.13;98387.75;4841525;29;20069;-74
2020/12/27 00:48:49;;;;;;;92.97;37.72;;;;;;;-5.38;85.83;98376.63;4842634;29;20057;-73
2020/12/27 00:51:20;;;;;;;92.40;41.15;;;;;;;-5.53;86.08;98382.63;4841053;29;20418;-73
2020/12/27 00:53:46;;;;;;;93.88;40.17;;;;;;;-5.54;85.89;98378.38;4842493;29;20054;-73
2020/12/27 00:56:12;;;;;;;90.93;37.38;;;;;;;-5.55;86.43;98378.38;4842383;29;20380;-73
2020/12/27 00:58:39;;;;;;;91.45;37.28;;;;;;;-5.59;86.62;98375.81;4825047;29;20122;-73
2020/12/27 01:01:06;;;;;;;82.53;36.28;;;;;;;-5.62;86.69;98368.16;4826073;29;20062;-73
2020/12/27 01:03:33;;;;;;;89.28;36.95;;;;;;;-5.65;86.87;98370.72;4841587;29;20057;-74
2020/12/27 01:05:59;;;;;;;89.70;37.03;;;;;;;-5.58;86.46;98369.88;4842352;29;20050;-74
2020/12/27 01:08:27;;;;;;;88.72;36.85;;;;;;;-5.69;86.95;98365.63;4841324;29;20053;-74
2020/12/27 01:10:53;;;;;;;83.60;36.92;;;;;;;-5.76;86.97;98367.38;4841976;29;20053;-73
2020/12/27 01:13:19;;;;;;;83.78;35.47;;;;;;;-5.81;87.27;98367.38;4842137;29;20060;-75
2020/12/27 01:15:46;;;;;;;87.35;35.92;;;;;;;-5.83;87.76;98358.84;4825283;29;20558;-74
2020/12/27 01:18:12;;;;;;;85.75;35.47;;;;;;;-5.76;87.55;98354.59;4841750;29;20053;-73
2020/12/27 01:20:38;;;;;;;86.30;36.83;;;;;;;-5.90;88.20;98346.97;4834638;29;20050;-74
2020/12/27 01:23:04;;;;;;;85.53;37.78;;;;;;;-5.93;88.59;98344.41;4812436;29;20576;-74
2020/12/27 01:25:29;;;;;;;88.22;38.25;;;;;;;-5.95;88.98;98343.53;4840790;29;20509;-74
2020/12/27 01:27:55;;;;;;;86.88;37.55;;;;;;;-5.93;88.79;98344.41;4841724;29;20102;-73
2020/12/27 01:30:21;;;;;;;85.53;38.25;;;;;;;-5.90;89.29;98341.84;4843866;29;20056;-80
2020/12/27 01:32:47;;;;;;;80.68;37.55;;;;;;;-5.98;89.36;98334.25;4825782;29;20154;-74
2020/12/27 01:35:13;;;;;;;90.60;38.65;;;;;;;-6.00;89.44;98329.97;4842440;29;20065;-74
2020/12/27 01:37:40;;;;;;;87.57;38.08;;;;;;;-5.95;89.37;98328.22;4841370;29;20049;-74
2020/12/27 01:40:05;;;;;;;82.88;36.10;;;;;;;-5.99;89.74;98324.88;4841269;29;20113;-74
2020/12/27 01:42:31;;;;;;;85.07;37.92;;;;;;;-6.01;89.89;98335.94;4825052;29;20479;-75
2020/12/27 01:45:00;;;;;;;82.38;38.78;;;;;;;-5.99;90.05;98326.59;4825911;29;20042;-74
2020/12/27 01:47:32;;;;;;;92.07;38.60;;;;;;;-6.04;90.34;98321.47;4824590;29;20117;-78
2020/12/27 01:49:59;;;;;;;84.47;38.38;;;;;;;-6.02;90.72;98326.59;4838710;29;20057;-73
2020/12/27 01:52:25;;;;;;;82.25;37.67;;;;;;;-5.95;90.35;98324.00;4822911;29;20146;-76
2020/12/27 01:54:51;;;;;;;84.40;38.97;;;;;;;-6.00;90.72;98327.44;4835897;29;20067;-73
2020/12/27 01:57:20;;;;;;;82.32;37.88;;;;;;;-5.96;90.35;98322.28;4840395;29;20098;-73
2020/12/27 01:59:46;;;;;;;87.45;39.38;;;;;;;-6.05;90.67;98308.72;4824279;29;20072;-74
2020/12/27 02:02:13;;;;;;;87.00;38.60;;;;;;;-6.08;90.87;98308.72;4840973;29;20058;-73
2020/12/27 02:04:40;;;;;;;85.38;38.50;;;;;;;-6.00;90.25;98300.19;4824729;29;20050;-74
2020/12/27 02:07:12;;;;;;;85.45;38.25;;;;;;;-6.05;90.52;98293.41;4841424;29;20050;-73
2020/12/27 02:09:41;;;;;;;85.72;39.25;;;;;;;-6.11;90.98;98296.81;4824194;29;20053;-74
2020/12/27 02:12:08;;;;;;;75.72;36.33;;;;;;;-6.13;91.10;98303.63;4825045;29;20114;-74
2020/12/27 02:14:38;;;;;;;80.07;37.13;;;;;;;-6.17;91.28;98302.75;4840394;29;20500;-74
2020/12/27 02:17:06;;;;;;;86.70;36.58;;;;;;;-6.06;91.20;98304.47;4825052;29;20105;-73
2020/12/27 02:19:32;;;;;;;77.70;36.50;;;;;;;-6.09;90.93;98296.81;4839999;29;20046;-74
2020/12/27 02:22:01;;;;;;;79.13;36.45;;;;;;;-6.18;91.14;98290.88;4841279;29;20070;-74
2020/12/27 02:24:27;;;;;;;75.22;33.92;;;;;;;-6.17;90.71;98281.50;4821063;29;20058;-79
2020/12/27 02:26:57;;;;;;;78.50;35.60;;;;;;;-6.09;90.77;98274.69;4822536;29;20376;-74
2020/12/27 02:29:24;;;;;;;78.60;35.08;;;;;;;-6.13;90.42;98258.53;4823254;29;20119;-74
2020/12/27 02:31:52;;;;;;;80.47;35.25;;;;;;;-6.14;90.47;98259.38;4821115;29;20479;-74
2020/12/27 02:34:19;;;;;;;70.53;33.80;;;;;;;-6.12;89.92;98257.69;4823068;29;20103;-74
2020/12/27 02:36:45;;;;;;;71.50;33.20;;;;;;;-6.09;90.15;98258.53;4821828;29;20133;-74
2020/12/27 02:39:12;;;;;;;70.18;31.45;;;;;;;-6.07;89.54;98251.72;4822557;29;20056;-75
2020/12/27 02:41:39;;;;;;;79.85;32.95;;;;;;;-6.10;89.41;98242.38;4822002;29;20046;-74
2020/12/27 02:44:06;;;;;;;66.65;30.88;;;;;;;-6.07;89.25;98234.72;4822837;29;20154;-74
2020/12/27 02:46:32;;;;;;;68.70;31.75;;;;;;;-6.14;89.27;98231.31;4821941;29;20057;-75
2020/12/27 02:48:58;;;;;;;65.20;30.90;;;;;;;-6.08;88.95;98239.81;4822558;29;20503;-75
2020/12/27 02:51:26;;;;;;;67.65;30.77;;;;;;;-6.06;88.95;98233.84;4823301;29;20050;-74
2020/12/27 02:53:53;;;;;;;66.72;30.60;;;;;;;-6.15;89.07;98237.28;4830354;29;20422;-74
2020/12/27 02:56:22;;;;;;;66.50;30.65;;;;;;;-6.12;89.08;98229.63;4841131;29;20050;-74
2020/12/27 02:58:49;;;;;;;63.13;28.67;;;;;;;-6.04;88.80;98236.38;4842094;29;20527;-76
2020/12/27 03:01:15;;;;;;;66.60;30.20;;;;;;;-6.13;88.97;98227.06;4840198;29;20058;-74
2020/12/27 03:03:41;;;;;;;58.70;28.23;;;;;;;-6.12;88.48;98223.66;4840063;29;20042;-75
2020/12/27 03:06:07;;;;;;;63.53;26.52;;;;;;;-6.15;88.52;98206.66;4840891;29;20046;-74
2020/12/27 03:08:33;;;;;;;59.95;26.98;;;;;;;-6.17;88.34;98215.16;4839964;29;20058;-76
2020/12/27 03:10:59;;;;;;;57.83;27.85;;;;;;;-6.15;88.20;98216.88;4840568;29;20050;-75
2020/12/27 03:13:27;;;;;;;57.53;26.98;;;;;;;-6.14;88.11;98200.69;4840719;29;20061;-73
2020/12/27 03:15:54;;;;;;;52.15;26.55;;;;;;;-6.14;88.06;98182.00;4843534;29;20347;-75
2020/12/27 03:18:23;;;;;;;49.30;24.67;;;;;;;-6.14;88.02;98182.81;4844259;29;20050;-74
2020/12/27 03:20:50;;;;;;;59.47;26.13;;;;;;;-6.16;88.10;98171.78;4843629;29;20129;-75
2020/12/27 03:23:16;;;;;;;50.90;25.15;;;;;;;-6.13;87.60;98171.78;4836546;29;20054;-76
2020/12/27 03:25:43;;;;;;;51.70;26.33;;;;;;;-6.17;87.79;98171.78;4824914;29;20085;-75
2020/12/27 03:28:10;;;;;;;49.72;25.67;;;;;;;-6.20;87.86;98179.44;4809585;29;20141;-75
2020/12/27 03:30:35;;;;;;;56.60;27.15;;;;;;;-6.15;87.69;98175.19;4824796;29;20050;-76
2020/12/27 03:33:02;;;;;;;56.72;25.70;;;;;;;-6.20;87.84;98161.59;4825418;29;20537;-75
2020/12/27 03:35:28;;;;;;;52.42;25.58;;;;;;;-6.23;87.59;98162.44;4825824;29;20046;-75
2020/12/27 03:37:53;;;;;;;51.20;25.00;;;;;;;-6.15;87.49;98170.94;4824535;29;20122;-75
2020/12/27 03:40:19;;;;;;;49.10;25.08;;;;;;;-6.19;87.43;98171.78;4825274;29;20053;-75
2020/12/27 03:42:45;;;;;;;50.00;25.38;;;;;;;-6.12;86.93;98165.81;4824758;29;20058;-75
2020/12/27 03:45:11;;;;;;;44.47;23.02;;;;;;;-6.17;87.35;98159.88;4825443;29;20050;-76
2020/12/27 03:47:37;;;;;;;48.03;23.75;;;;;;;-6.13;86.68;98151.38;4808806;29;20126;-74
2020/12/27 03:50:04;;;;;;;51.22;23.95;;;;;;;-6.19;86.86;98146.28;4809324;29;20080;-73
2020/12/27 03:52:30;;;;;;;42.63;22.83;;;;;;;-6.15;86.95;98147.97;4825517;29;20057;-73
2020/12/27 03:54:56;;;;;;;47.33;23.50;;;;;;;-6.11;86.63;98143.69;4828529;29;20058;-74
2020/12/27 03:57:21;;;;;;;45.13;21.85;;;;;;;-6.06;86.06;98141.13;4827056;29;20145;-73
2020/12/27 03:59:47;;;;;;;47.92;22.27;;;;;;;-6.09;86.40;98134.31;4842520;29;20498;-73
2020/12/27 04:02:13;;;;;;;42.78;21.83;;;;;;;-6.19;86.61;98137.78;4843301;29;20552;-74
2020/12/27 04:04:39;;;;;;;43.35;21.02;;;;;;;-6.08;86.64;98138.59;4842788;29;20054;-75
2020/12/27 04:07:05;;;;;;;45.13;23.17;;;;;;;-6.15;86.68;98134.34;4843068;29;20058;-75
2020/12/27 04:09:31;;;;;;;46.58;22.00;;;;;;;-6.23;86.84;98123.34;4827059;29;20053;-75
2020/12/27 04:11:57;;;;;;;44.45;21.95;;;;;;;-6.25;86.73;98125.88;4842867;29;20054;-74
2020/12/27 04:14:23;;;;;;;39.40;20.48;;;;;;;-6.17;86.93;98134.34;4843142;29;20087;-74
2020/12/27 04:16:49;;;;;;;46.47;22.63;;;;;;;-6.26;86.92;98129.28;4842204;29;20057;-73
2020/12/27 04:19:15;;;;;;;41.17;20.80;;;;;;;-6.28;87.07;98131.00;4843495;29;20066;-74
2020/12/27 04:21:47;;;;;;;38.08;20.73;;;;;;;-6.28;86.90;98109.75;4842141;29;20053;-74
2020/12/27 04:24:14;;;;;;;41.78;21.10;;;;;;;-6.31;86.94;98113.16;4826874;29;20057;-74
2020/12/27 04:26:40;;;;;;;41.90;19.83;;;;;;;-6.30;86.73;98102.94;4808838;29;20054;-75
2020/12/27 04:29:06;;;;;;;38.38;18.70;;;;;;;-6.30;86.72;98097.84;4826484;29;20087;-74
2020/12/27 04:31:33;;;;;;;42.88;19.20;;;;;;;-6.32;86.72;98106.34;4832200;29;20050;-75
2020/12/27 04:33:58;;;;;;;36.72;18.15;;;;;;;-6.31;86.71;98105.50;4841929;29;20513;-74
2020/12/27 04:36:24;;;;;;;39.72;19.35;;;;;;;-6.34;86.87;98090.22;4842779;29;20137;-74
2020/12/27 04:38:51;;;;;;;40.95;20.65;;;;;;;-6.38;87.01;98094.50;4825379;29;20511;-74
2020/12/27 04:41:19;;;;;;;46.05;20.58;;;;;;;-6.38;86.88;98088.50;4842799;29;20146;-74
2020/12/27 04:43:48;;;;;;;45.55;19.70;;;;;;;-6.39;86.87;98081.75;4841888;29;20058;-74
2020/12/27 04:46:15;;;;;;;39.33;19.83;;;;;;;-6.42;87.08;98081.75;4842740;29;20049;-74
2020/12/27 04:48:43;;;;;;;38.92;18.42;;;;;;;-6.41;86.89;98079.19;4841680;29;20213;-75
2020/12/27 04:51:11;;;;;;;42.15;19.05;;;;;;;-6.42;87.01;98067.28;4842279;29;20057;-75
2020/12/27 04:53:39;;;;;;;41.75;18.92;;;;;;;-6.42;86.89;98066.44;4830690;29;20051;-78
2020/12/27 04:56:07;;;;;;;40.45;18.63;;;;;;;-6.42;86.71;98062.19;4824179;29;20423;-74
2020/12/27 04:58:33;;;;;;;38.92;18.80;;;;;;;-6.44;86.59;98052.84;4823850;29;20129;-75
2020/12/27 05:01:00;;;;;;;36.05;17.65;;;;;;;-6.42;86.87;98057.09;4822855;29;20054;-74
2020/12/27 05:03:26;;;;;;;37.63;18.38;;;;;;;-6.42;86.60;98061.34;4824240;29;20054;-74
2020/12/27 05:05:53;;;;;;;39.15;17.92;;;;;;;-6.46;86.58;98060.50;4823131;29;20070;-74
2020/12/27 05:08:20;;;;;;;36.42;16.90;;;;;;;-6.41;86.41;98057.91;4824235;29;20054;-74
2020/12/27 05:10:47;;;;;;;35.70;17.55;;;;;;;-6.38;86.14;98050.25;4822844;29;20054;-74
2020/12/27 05:13:14;;;;;;;34.88;17.50;;;;;;;-6.37;86.05;98049.41;4824094;29;20054;-74
2020/12/27 05:15:43;;;;;;;36.83;17.30;;;;;;;-6.38;86.02;98052.81;4823323;29;20054;-78
2020/12/27 05:18:11;;;;;;;38.60;18.65;;;;;;;-6.45;86.25;98051.16;4823479;29;20141;-74
2020/12/27 05:20:38;;;;;;;34.55;17.85;;;;;;;-6.55;86.67;98048.66;4823755;29;20050;-75
2020/12/27 05:23:05;;;;;;;41.15;19.42;;;;;;;-6.55;87.05;98052.88;4831597;29;20487;-74
2020/12/27 05:25:33;;;;;;;38.83;18.23;;;;;;;-6.56;86.64;98054.59;4828685;29;20078;-75
2020/12/27 05:28:05;;;;;;;35.70;18.60;;;;;;;-6.62;87.13;98052.06;4822988;29;20186;-75
2020/12/27 05:30:31;;;;;;;39.97;20.17;;;;;;;-6.61;86.88;98050.34;4821105;29;20046;-74
2020/12/27 05:32:57;;;;;;;38.20;18.48;;;;;;;-6.63;87.01;98047.81;4840467;29;20046;-74
2020/12/27 05:35:23;;;;;;;40.10;18.35;;;;;;;-6.64;87.22;98041.03;4841944;29;20558;-74
2020/12/27 05:37:52;;;;;;;39.25;19.33;;;;;;;-6.62;87.07;98035.94;4840371;29;20459;-75
2020/12/27 05:40:19;;;;;;;40.28;17.27;;;;;;;-6.64;87.13;98035.94;4841676;29;20106;-75
2020/12/27 05:42:46;;;;;;;42.38;19.48;;;;;;;-6.68;87.07;98022.31;4840610;29;20414;-75
2020/12/27 05:45:17;;;;;;;38.63;18.60;;;;;;;-6.74;87.28;98021.50;4841531;29;20529;-74
2020/12/27 05:47:44;;;;;;;39.65;17.75;;;;;;;-6.72;87.67;98024.88;4837191;29;20440;-78
2020/12/27 05:50:12;;;;;;;38.40;18.05;;;;;;;-6.67;87.57;98030.84;4831297;29;20109;-75
2020/12/27 05:52:44;;;;;;;37.45;18.77;;;;;;;-6.71;87.43;98029.16;4840189;29;20364;-75
2020/12/27 05:55:16;;;;;;;43.65;19.35;;;;;;;-6.70;87.57;98036.78;4835740;29;20088;-75
2020/12/27 05:57:48;;;;;;;42.67;19.92;;;;;;;-6.69;87.46;98035.94;4845027;29;20058;-78
2020/12/27 06:00:17;;;;;;;42.08;19.75;;;;;;;-6.76;87.37;98025.78;4841572;29;20372;-75
2020/12/27 06:02:43;;;;;;;45.90;20.20;;;;;;;-6.75;87.75;98019.81;4838900;29;20061;-78
2020/12/27 06:05:13;;;;;;;40.72;19.67;;;;;;;-6.77;87.63;98018.97;4823941;29;20046;-75
2020/12/27 06:07:44;;;;;;;44.80;22.50;;;;;;;-6.80;87.88;98021.53;4838035;29;20132;-73
2020/12/27 06:10:15;;;;;;;48.22;22.35;;;;;;;-6.82;88.03;98034.28;4822616;29;20047;-73
2020/12/27 06:13:02;;;;;;;50.63;23.98;;;;;;;-6.85;87.92;98022.38;4831245;29;20053;-74
2020/12/27 06:15:30;;;;;;;43.95;21.70;;;;;;;-6.89;87.95;98023.28;4839544;29;20542;-74
2020/12/27 06:18:11;;;;;;;49.85;23.80;;;;;;;-6.92;88.24;98020.72;4821969;29;20491;-74
2020/12/27 06:20:44;;;;;;;50.58;23.48;;;;;;;-6.94;88.37;98031.78;4821315;29;20141;-75
2020/12/27 06:23:11;;;;;;;48.80;24.35;;;;;;;-7.01;88.22;98028.41;4841160;29;20050;-74
2020/12/27 06:25:39;;;;;;;50.35;23.60;;;;;;;-7.04;89.13;98038.59;4840421;29;20439;-74
2020/12/27 06:28:07;;;;;;;48.72;23.42;;;;;;;-7.01;89.19;98033.50;4839960;29;20053;-74
2020/12/27 06:30:34;;;;;;;45.33;23.58;;;;;;;-7.08;89.28;98037.72;4841030;29;20049;-75
2020/12/27 06:33:19;;;;;;;46.28;23.83;;;;;;;-7.08;89.04;98035.19;4840203;29;20054;-75
2020/12/27 06:35:46;;;;;;;48.40;22.52;;;;;;;-7.10;89.38;98031.81;4827067;29;20349;-78
2020/12/27 06:38:17;;;;;;;51.22;24.55;;;;;;;-7.13;89.53;98036.06;4832072;29;20061;-75
2020/12/27 06:40:45;;;;;;;53.90;25.33;;;;;;;-7.14;89.64;98030.09;4840365;29;20042;-75
2020/12/27 06:43:21;;;;;;;56.35;26.30;;;;;;;-7.10;89.36;98036.91;4840594;29;20061;-75
2020/12/27 06:45:49;;;;;;;52.92;26.25;;;;;;;-7.11;89.48;98030.09;4840253;29;20430;-78
2020/12/27 06:48:32;;;;;;;60.00;26.52;;;;;;;-7.08;90.25;98025.00;4841055;29;20102;-76
2020/12/27 06:50:58;;;;;;;53.35;24.75;;;;;;;-7.05;89.24;98021.59;4810026;29;20053;-77
2020/12/27 06:53:55;;;;;;;48.03;22.83;;;;;;;-7.01;88.71;98018.22;4826006;29;20054;-79
2020/12/27 06:56:36;;;;;;;43.25;21.60;;;;;;;-6.87;88.14;98019.00;4834314;29;20047;-76
2020/12/27 06:59:03;;;;;;;41.70;20.35;;;;;;;-6.84;87.74;98016.44;4834290;29;20087;-75
2020/12/27 07:01:29;;;;;;;45.03;21.55;;;;;;;-6.75;87.22;98014.72;4843627;29;20068;-72
2020/12/27 07:04:12;;;;;;;44.80;21.35;;;;;;;-6.62;86.56;97995.97;4839285;29;20500;-79
2020/12/27 07:06:46;;;;;;;40.58;19.02;;;;;;;-6.51;86.07;97996.75;4823813;29;20050;-75
2020/12/27 07:09:26;;;;;;;41.17;18.98;;;;;;;-6.29;84.90;97996.63;4843269;29;20054;-75
2020/12/27 07:12:07;;;;;;;45.83;21.05;;;;;;;-6.30;84.52;98002.63;4843488;29;20050;-76
2020/12/27 07:14:40;;;;;;;48.15;21.75;;;;;;;-6.23;84.49;97996.59;4825968;29;20066;-76
2020/12/27 07:17:06;;;;;;;42.55;19.60;;;;;;;-6.23;84.73;97995.78;4843469;29;20410;-74
2020/12/27 07:19:35;;;;;;;41.63;20.30;;;;;;;-6.16;84.29;97988.06;4843633;29;20049;-76
2020/12/27 07:22:10;;;;;;;42.83;20.35;;;;;;;-6.08;83.54;97975.25;4827895;29;20062;-72
2020/12/27 07:24:40;;;;;;;53.67;21.70;;;;;;;-5.94;83.35;97972.56;4848854;29;20084;-75
2020/12/27 07:27:10;;;;;;;51.30;22.20;;;;;;;-5.83;83.72;97968.22;4827002;29;20054;-73
2020/12/27 07:29:36;;;;;;;52.33;23.38;;;;;;;-6.02;84.88;97970.13;4829021;29;20062;-77
2020/12/27 07:32:03;;;;;;;52.35;23.95;;;;;;;-5.88;83.37;97971.69;4831128;29;20057;-78
2020/12/27 07:34:30;;;;;;;53.78;24.08;;;;;;;-5.68;82.86;97956.22;4862072;29;20053;-76
2020/12/27 07:37:02;;;;;;;49.00;23.55;;;;;;;-5.50;81.51;97967.94;4856501;29;20133;-72
2020/12/27 07:39:57;;;;;;;54.78;22.08;;;;;;;-5.49;81.19;97954.31;4843860;29;20065;-73
2020/12/27 07:42:24;;;;;;;46.60;22.00;;;;;;;-5.26;79.73;97952.38;4843243;29;20050;-72
2020/12/27 07:44:51;;;;;;;53.50;22.65;;;;;;;-5.14;79.59;97941.19;4842204;29;20049;-73
2020/12/27 07:47:17;;;;;;;51.17;23.83;;;;;;;-4.99;78.43;97949.53;4843160;29;20053;-71
2020/12/27 07:49:43;;;;;;;61.53;25.60;;;;;;;-5.01;78.08;97946.16;4843243;29;20053;-71
2020/12/27 07:52:09;;;;;;;61.30;24.77;;;;;;;-4.81;78.45;97935.69;4842769;29;20050;-72
2020/12/27 07:54:35;;;;;;;55.97;23.48;;;;;;;-4.80;78.81;97928.00;4842934;29;20065;-72
2020/12/27 07:57:00;;;;;;;49.80;22.75;;;;;;;-4.64;78.84;97930.38;4826355;29;20070;-73
2020/12/27 07:59:26;;;;;;;48.22;21.45;;;;;;;-4.27;75.84;97925.56;4842964;29;20408;-72
2020/12/27 08:01:52;;;;;;;49.55;20.70;;;;;;;-4.54;76.79;97911.44;4842896;29;20503;-76
2020/12/27 08:04:19;;;;;;;43.38;20.08;;;;;;;-4.26;75.81;97913.59;4839227;29;20049;-73
2020/12/27 08:06:45;;;;;;;42.63;19.58;;;;;;;-4.16;75.51;97912.59;4826160;29;20117;-77
2020/12/27 08:09:13;;;;;;;34.85;19.23;;;;;;;-4.11;73.76;97913.38;4821911;29;20137;-77
2020/12/27 08:11:43;;;;;;;40.78;18.60;;;;;;;-3.92;73.05;97915.63;4841768;29;20090;-77
2020/12/27 08:14:13;;;;;;;40.05;19.05;;;;;;;-3.83;72.75;97918.03;4842354;29;20057;-75
2020/12/27 08:16:41;;;;;;;43.88;20.33;;;;;;;-3.67;72.29;97901.56;4842860;29;20178;-76
2020/12/27 08:19:11;;;;;;;49.80;20.95;;;;;;;-3.47;71.26;97897.81;4841643;29;20109;-78
2020/12/27 08:21:42;;;;;;;49.95;20.98;;;;;;;-3.11;70.73;97896.25;4842084;29;20073;-78
2020/12/27 08:24:10;;;;;;;44.05;21.55;;;;;;;-2.97;69.76;97900.25;4842223;29;20062;-74
2020/12/27 08:26:41;;;;;;;42.95;20.05;;;;;;;-2.76;69.57;97898.97;4842155;29;20047;-76
2020/12/27 08:29:08;;;;;;;47.92;20.85;;;;;;;-3.13;69.64;97892.03;4845514;29;20076;-74
2020/12/27 08:31:34;;;;;;;48.30;21.20;;;;;;;-3.14;71.08;97890.34;4842573;29;20054;-77
2020/12/27 08:34:14;;;;;;;47.58;20.27;;;;;;;-2.65;69.28;97899.59;4841522;29;20106;-78
2020/12/27 08:36:51;;;;;;;40.15;17.95;;;;;;;-2.84;69.85;97901.72;4842567;29;20061;-75
2020/12/27 08:39:46;;;;;;;38.00;17.10;;;;;;;-2.62;68.98;97903.81;4843445;29;20049;-74
2020/12/27 08:42:37;;;;;;;42.65;18.00;;;;;;;-1.82;67.83;97910.50;4860327;29;20240;-77
2020/12/27 08:45:09;;;;;;;39.15;17.65;;;;;;;-2.11;66.52;97903.50;4855265;29;20056;-76
2020/12/27 08:47:54;;;;;;;;;;;;;;;-1.33;64.99;97908.44;4842361;29;20054;-76
2020/12/27 08:50:19;;;;;;;38.60;16.88;;;;;;;-1.30;64.19;97895.47;4836224;29;20266;-77
2020/12/27 08:52:51;;;;;;;42.90;20.23;;;;;;;-1.36;64.17;97893.06;4847029;29;20057;-75
2020/12/27 08:55:27;;;;;;;48.25;20.95;;;;;;;-1.39;64.39;97897.44;4841571;29;20050;-76
2020/12/27 08:57:57;;;;;;;53.65;25.35;;;;;;;-1.53;64.23;97890.94;4840450;29;20117;-76
2020/12/27 09:00:33;;;;;;;56.50;25.00;;;;;;;-1.50;64.46;97887.44;4825590;29;20061;-75
2020/12/27 09:03:02;;;;;;;54.22;25.52;;;;;;;-1.20;63.63;97875.50;4840450;29;20050;-74
2020/12/27 09:05:30;;;;;;;51.75;23.58;;;;;;;-0.95;62.75;97874.81;4842281;29;20352;-74
2020/12/27 09:07:56;;;;;;;55.53;24.05;;;;;;;-0.24;59.72;97862.38;4841378;29;20061;-76
2020/12/27 09:10:30;;;;;;;52.33;24.85;;;;;;;-0.61;61.10;97863.50;4842327;29;20504;-75
2020/12/27 09:13:02;;;;;;;50.42;22.90;;;;;;;-0.25;60.22;97855.53;4840509;29;20157;-78
2020/12/27 09:15:35;;;;;;;49.35;24.27;;;;;;;0.02;58.91;97842.63;4842276;29;20076;-72
2020/12/27 09:18:02;;;;;;;47.85;23.75;;;;;;;-0.07;58.58;97838.66;4825086;29;20050;-78
2020/12/27 09:20:30;;;;;;;43.90;21.73;;;;;;;0.51;58.28;97833.22;4828246;29;20058;-79
2020/12/27 09:22:56;;;;;;;48.78;20.95;;;;;;;-0.05;58.49;97826.53;4823129;29;20102;-78
2020/12/27 09:25:23;;;;;;;46.17;21.83;;;;;;;-0.42;59.94;97823.44;4816578;29;20061;-77
2020/12/27 09:27:51;;;;;;;45.72;21.88;;;;;;;-0.39;60.21;97823.34;4841367;29;20046;-78
2020/12/27 09:30:20;;;;;;;50.33;24.45;;;;;;;-0.63;61.29;97811.25;4839164;29;20118;-78
2020/12/27 09:32:47;;;;;;;52.47;22.95;;;;;;;-0.44;61.54;97807.19;4842032;29;20495;-78
2020/12/27 09:35:23;;;;;;;45.33;22.90;;;;;;;-0.52;62.79;97792.88;4824529;29;20592;-77
2020/12/27 09:37:49;;;;;;;44.53;21.77;;;;;;;-0.38;60.28;97796.69;4841464;29;20128;-79
2020/12/27 09:40:16;;;;;;;43.67;21.63;;;;;;;-0.56;60.28;97777.53;4822796;29;20117;-77
2020/12/27 09:42:43;;;;;;;40.72;20.38;;;;;;;-0.41;59.89;97781.31;4823239;29;20415;-77
2020/12/27 09:45:39;;;;;;;41.10;18.88;;;;;;;-0.29;59.37;97785.25;4823042;29;20043;-76
2020/12/27 09:48:04;;;;;;;37.85;17.15;;;;;;;-0.01;57.98;97769.69;4838483;29;20057;-79
2020/12/27 09:50:39;;;;;;;37.03;17.48;;;;;;;0.37;57.56;97763.25;4830744;29;20060;-77
2020/12/27 09:53:05;;;;;;;34.80;16.45;;;;;;;0.09;56.81;97761.66;4822698;29;20099;-74
2020/12/27 09:55:34;;;;;;;33.25;16.13;;;;;;;0.24;57.17;97750.81;4816659;29;20046;-75
2020/12/27 09:58:00;;;;;;;29.40;13.73;;;;;;;0.03;55.93;97752.38;4840770;29;20050;-74
2020/12/27 10:00:26;;;;;;;32.10;14.88;;;;;;;0.17;55.85;97754.47;4839617;29;20149;-77
2020/12/27 10:02:51;;;;;;;32.30;14.50;;;;;;;0.00;56.21;97747.38;4841397;29;20074;-84
2020/12/27 10:05:17;;;;;;;32.38;14.57;;;;;;;0.03;56.36;97734.34;4839188;29;20143;-73
2020/12/27 10:07:44;;;;;;;27.73;14.00;;;;;;;-0.07;56.94;97726.09;4837157;29;20103;-78
2020/12/27 10:10:12;;;;;;;29.98;14.18;;;;;;;-0.01;56.33;97731.03;4822454;29;20069;-81
2020/12/27 10:12:39;;;;;;;30.55;14.75;;;;;;;0.11;55.55;97721.19;4823366;29;20050;-77
2020/12/27 10:15:07;;;;;;;28.45;14.18;;;;;;;0.00;57.75;97716.44;4827825;29;20212;-79
2020/12/27 10:17:33;;;;;;;29.35;14.50;;;;;;;-0.10;56.19;97715.91;4841759;29;20050;-78
2020/12/27 10:20:00;;;;;;;34.40;15.02;;;;;;;-0.05;56.69;97703.72;4823259;29;20049;-79
2020/12/27 10:22:27;;;;;;;33.60;15.85;;;;;;;0.14;55.92;97695.31;4824482;29;20050;-80
2020/12/27 10:24:53;;;;;;;33.03;16.02;;;;;;;0.56;55.39;97689.50;4832938;29;20062;-78
2020/12/27 10:27:21;;;;;;;31.95;15.68;;;;;;;0.68;53.58;97675.28;4844428;29;20042;-81
2020/12/27 10:29:47;;;;;;;35.03;15.70;;;;;;;0.51;54.17;97676.78;4843746;29;20057;-79
2020/12/27 10:32:12;;;;;;;34.35;14.82;;;;;;;1.01;53.25;97675.72;4840377;29;20050;-79
2020/12/27 10:34:38;;;;;;;32.58;15.80;;;;;;;1.40;53.31;97676.75;4839480;29;20562;-79
2020/12/27 10:37:05;;;;;;;35.30;16.00;;;;;;;1.62;55.39;97663.75;4850601;29;20056;-82
2020/12/27 10:39:31;;;;;;;34.45;16.90;;;;;;;1.05;52.39;97660.94;4859811;29;20057;-80
2020/12/27 10:41:57;;;;;;;33.65;15.32;;;;;;;1.20;51.85;97649.16;4859493;29;20131;-78
2020/12/27 10:44:24;;;;;;;33.03;15.13;;;;;;;1.32;52.14;97640.06;4857808;29;20065;-76
2020/12/27 10:46:50;;;;;;;33.22;15.65;;;;;;;1.76;50.42;97635.59;4822708;29;20089;-78
2020/12/27 10:49:21;;;;;;;35.63;16.80;;;;;;;2.43;49.64;97614.56;4821834;29;20130;-80
2020/12/27 10:51:47;;;;;;;35.95;16.50;;;;;;;3.20;49.08;97611.72;4822939;29;20114;-76
2020/12/27 10:54:13;;;;;;;33.10;15.80;;;;;;;3.14;47.00;97609.44;4822160;29;20115;-78
2020/12/27 10:56:41;;;;;;;39.72;17.20;;;;;;;3.73;47.28;97603.91;4806843;29;20057;-79
2020/12/27 10:59:07;;;;;;;36.67;17.73;;;;;;;4.14;48.36;97600.91;4822382;29;20078;-78
2020/12/27 11:01:32;;;;;;;33.80;17.38;;;;;;;4.54;43.99;97593.53;4822781;29;20090;-79
2020/12/27 11:03:59;;;;;;;32.22;17.00;;;;;;;5.10;45.37;97591.28;4806713;29;20047;-78
2020/12/27 11:06:33;;;;;;;32.20;16.92;;;;;;;5.18;43.65;97586.47;4823753;29;20527;-79
2020/12/27 11:08:59;;;;;;;37.03;16.42;;;;;;;5.66;42.78;97586.28;4829660;29;20534;-78
2020/12/27 11:11:26;;;;;;;29.35;15.88;;;;;;;4.20;42.64;97587.59;4822610;29;20145;-78
2020/12/27 11:13:51;;;;;;;29.75;15.30;;;;;;;5.04;41.38;97570.84;4846537;29;20140;-79
2020/12/27 11:16:17;;;;;;;30.23;16.23;;;;;;;4.54;42.45;97553.75;4858838;29;20041;-81
2020/12/27 11:18:43;;;;;;;30.80;15.57;;;;;;;5.30;42.87;97547.69;4825945;29;20125;-79
2020/12/27 11:21:09;;;;;;;29.42;15.88;;;;;;;4.80;44.40;97549.69;4822062;29;20086;-80
2020/12/27 11:23:35;;;;;;;30.45;16.13;;;;;;;5.50;44.22;97533.50;4822134;29;20089;-78
2020/12/27 11:26:01;;;;;;;33.88;16.95;;;;;;;5.76;41.69;97520.69;4824456;29;20050;-78